Decoded Metar for RPLL (MANILA in PHILIPPINES) (IATA:MNL) | Meteo·Mobile Aviation Weather
aviador You're here:

RPLL Decoded Metar

MANILA in PHILIPPINES
Report Time2020-02-18 21:00:00
UTC Time2020-02-18 21:37:17
Flight Rules vfr VFR
Wind230° at 04 kt
W.Decomp.*RWY 24: 4.0 kt HW 0.6 kt LCW
RWY 31: 0.8 kt HW 3.9 kt LCW
Visibility9999 m
Phenomena:N/A
Clouds:Few 025 Hf
Scattered 100 Hf
Expected CloudBase > 2,000 ft AGL from Temp-Dew spread
CeilingNone
Temp24°C (ISA +9)
Dew Point19°C (74% RH)
QNH1015 hPa
Density Alt1,352 ft
Elevation69 ft
Report Wrong Elevation
Raw Report
METAR RPLL 182100Z 23004KT 9999 FEW025 SCT100 24/19 Q1015 NOSIG RMK
A2997=

Extra information for RPLL:More info

Metar Taf Metar & Taf Last 4 Metars F.Rules Stats Wind Profile Meteogram Temp Stats Airport Information Weather charts Add Link Nearby VenuesMetar ALERT Operation Metar Decoded Social comments